Time;durP1;ratioP1;P1;durP2;ratioP2;P2;SDS_P1;SDS_P2;PMS_P1;PMS_P2;Temp;Humidity;BMP_temperature;BMP_pressure;BME280_temperature;BME280_humidity;BME280_pressure;Samples;Min_cycle;Max_cycle;Signal;HPM_P1;HPM_P2
2023/08/06 00:01:43;;;;;;;;;;;25.80;60.40;;;;;;5027288;28;43058;-79
2023/08/06 00:04:09;;;;;;;;;;;25.80;61.10;;;;;;5044941;28;44019;-79
2023/08/06 00:06:34;;;;;;;;;;;25.80;60.90;;;;;;5044684;28;42735;-79
2023/08/06 00:09:00;;;;;;;;;;;25.70;60.50;;;;;;5030058;28;43011;-79
2023/08/06 00:11:25;;;;;;;;;;;25.90;61.70;;;;;;5025296;28;42830;-79
2023/08/06 00:13:51;;;;;;;;;;;25.80;61.40;;;;;;5023640;28;42957;-79
2023/08/06 00:16:16;;;;;;;;;;;25.90;60.60;;;;;;5025546;28;43232;-86
2023/08/06 00:18:42;;;;;;;;;;;25.90;61.30;;;;;;5035262;28;43630;-83
2023/08/06 00:21:07;;;;;;;;;;;25.70;62.20;;;;;;5043840;28;42900;-79
2023/08/06 00:23:33;;;;;;;;;;;25.70;61.30;;;;;;5045019;28;43402;-79
2023/08/06 00:25:58;;;;;;;;;;;25.80;62.20;;;;;;5045277;28;42959;-82
2023/08/06 00:28:24;;;;;;;;;;;25.60;62.20;;;;;;5041056;28;43721;-80
2023/08/06 00:30:56;;;;;;;;;;;25.80;61.20;;;;;;5023055;28;42889;-79
2023/08/06 00:33:22;;;;;;;;;;;26.00;60.10;;;;;;5024553;28;42952;-80
2023/08/06 00:35:47;;;;;;;;;;;25.90;61.80;;;;;;5025512;28;43003;-83
2023/08/06 00:38:13;;;;;;;;;;;25.70;61.80;;;;;;5038984;28;42976;-82
2023/08/06 00:40:39;;;;;;;;;;;25.80;61.30;;;;;;5043120;28;42900;-84
2023/08/06 00:43:04;;;;;;;;;;;25.80;61.10;;;;;;5044297;28;42963;-79
2023/08/06 00:45:30;;;;;;;;;;;25.60;61.30;;;;;;5039490;28;43174;-80
2023/08/06 00:47:56;;;;;;;;;;;25.80;61.90;;;;;;5024269;28;43577;-80
2023/08/06 00:50:22;;;;;;;;;;;25.70;61.90;;;;;;5030769;28;42970;-81
2023/08/06 00:52:51;;;;;;;;;;;25.80;62.20;;;;;;5044736;28;42849;-79
2023/08/06 00:55:17;;;;;;;;;;;25.80;59.80;;;;;;5044080;28;42899;-86
2023/08/06 00:57:42;;;;;;;;;;;25.70;62.30;;;;;;5044892;28;43034;-88
2023/08/06 01:00:08;;;;;;;;;;;25.80;61.40;;;;;;5044461;28;43138;-79
2023/08/06 01:02:33;;;;;;;;;;;25.70;58.90;;;;;;5044084;28;44809;-79
2023/08/06 01:04:59;;;;;;;;;;;25.50;58.20;;;;;;5044170;28;42919;-79
2023/08/06 01:07:40;;;;;;;;;;;25.60;58.20;;;;;;5025639;28;43017;-88
2023/08/06 01:10:06;;;;;;;;;;;25.60;56.60;;;;;;5043360;28;42889;-80
2023/08/06 01:12:41;;;;;;;;;;;25.70;58.40;;;;;;5044827;28;42901;-79
2023/08/06 01:15:07;;;;;;;;;;;25.80;56.90;;;;;;5044660;28;42856;-83
2023/08/06 01:17:33;;;;;;;;;;;25.80;58.50;;;;;;5043569;28;43747;-89
2023/08/06 01:19:59;;;;;;;;;;;25.70;58.60;;;;;;5044386;28;43082;-79
2023/08/06 01:22:24;;;;;;;;;;;25.90;60.20;;;;;;5039441;28;43263;-80
2023/08/06 01:24:51;;;;;;;;;;;25.80;60.90;;;;;;5038452;28;43077;-81
2023/08/06 01:27:27;;;;;;;;;;;25.80;60.60;;;;;;5032694;28;43669;-83
2023/08/06 01:30:11;;;;;;;;;;;25.70;58.50;;;;;;5043767;28;43070;-80
2023/08/06 01:32:38;;;;;;;;;;;25.70;59.20;;;;;;5042085;28;43486;-82
2023/08/06 01:35:04;;;;;;;;;;;25.70;60.50;;;;;;5044392;28;43039;-79
2023/08/06 01:37:30;;;;;;;;;;;25.80;62.80;;;;;;5041481;28;42939;-79
2023/08/06 01:39:56;;;;;;;;;;;25.80;60.90;;;;;;5041329;28;42828;-84
2023/08/06 01:42:21;;;;;;;;;;;25.60;60.80;;;;;;5043471;28;43453;-85
2023/08/06 01:44:47;;;;;;;;;;;25.80;61.10;;;;;;5043673;28;42800;-80
2023/08/06 01:47:12;;;;;;;;;;;25.80;61.50;;;;;;5042239;28;43231;-80
2023/08/06 01:49:38;;;;;;;;;;;25.80;61.30;;;;;;5046655;28;42998;-80
2023/08/06 01:52:03;;;;;;;;;;;25.70;59.90;;;;;;5047218;28;42952;-79
2023/08/06 01:54:29;;;;;;;;;;;25.70;57.90;;;;;;5039818;28;44460;-79
2023/08/06 01:56:54;;;;;;;;;;;25.60;58.30;;;;;;5025302;28;43397;-79
2023/08/06 01:59:20;;;;;;;;;;;25.60;58.40;;;;;;5026718;28;42938;-83
2023/08/06 02:01:46;;;;;;;;;;;25.50;58.30;;;;;;5025776;28;43478;-90
2023/08/06 02:04:11;;;;;;;;;;;25.40;58.70;;;;;;5027006;28;42918;-83
2023/08/06 02:06:37;;;;;;;;;;;25.60;58.60;;;;;;5026843;28;42821;-81
2023/08/06 02:09:02;;;;;;;;;;;25.50;58.50;;;;;;5027553;28;42967;-83
2023/08/06 02:11:28;;;;;;;;;;;25.70;58.80;;;;;;5026416;28;43482;-80
2023/08/06 02:13:54;;;;;;;;;;;25.60;58.80;;;;;;5026700;28;42844;-80
2023/08/06 02:16:19;;;;;;;;;;;25.70;59.00;;;;;;5025176;28;43745;-79
2023/08/06 02:18:45;;;;;;;;;;;25.50;58.90;;;;;;5026526;28;42885;-80
2023/08/06 02:21:10;;;;;;;;;;;25.50;59.00;;;;;;5033349;28;44412;-89
2023/08/06 02:23:36;;;;;;;;;;;25.60;59.30;;;;;;5045656;28;43652;-89
2023/08/06 02:26:03;;;;;;;;;;;25.60;59.50;;;;;;5045013;28;43704;-79
2023/08/06 02:28:29;;;;;;;;;;;25.80;59.70;;;;;;5046433;28;43023;-89
2023/08/06 02:30:54;;;;;;;;;;;25.40;59.50;;;;;;5043647;28;43301;-79
2023/08/06 02:33:20;;;;;;;;;;;25.80;61.20;;;;;;5044926;28;43110;-80
2023/08/06 02:35:45;;;;;;;;;;;25.60;61.60;;;;;;5044944;28;43394;-79
2023/08/06 02:38:11;;;;;;;;;;;25.60;62.90;;;;;;5046296;28;42911;-79
2023/08/06 02:40:36;;;;;;;;;;;25.70;63.20;;;;;;5045791;28;43387;-79
2023/08/06 02:43:02;;;;;;;;;;;25.50;64.90;;;;;;5028769;28;42917;-81
2023/08/06 02:45:28;;;;;;;;;;;25.60;61.20;;;;;;5025540;28;43705;-81
2023/08/06 02:47:54;;;;;;;;;;;25.60;62.80;;;;;;5026227;28;42813;-81
2023/08/06 02:50:19;;;;;;;;;;;25.70;63.30;;;;;;5025862;28;42983;-84
2023/08/06 02:52:45;;;;;;;;;;;25.50;62.40;;;;;;5026870;28;42967;-89
2023/08/06 02:55:10;;;;;;;;;;;25.80;63.20;;;;;;5025914;28;42897;-81
2023/08/06 02:57:36;;;;;;;;;;;25.60;62.00;;;;;;5025656;28;42976;-80
2023/08/06 03:00:02;;;;;;;;;;;25.60;61.30;;;;;;5025594;28;43315;-80
2023/08/06 03:02:27;;;;;;;;;;;25.70;61.00;;;;;;5026525;28;43086;-80
2023/08/06 03:04:53;;;;;;;;;;;25.40;63.60;;;;;;5024987;28;43462;-79
2023/08/06 03:07:18;;;;;;;;;;;25.60;63.10;;;;;;5024645;28;42967;-79
2023/08/06 03:09:44;;;;;;;;;;;25.60;62.20;;;;;;5025449;28;43617;-79
2023/08/06 03:12:09;;;;;;;;;;;25.50;64.10;;;;;;5025343;28;42928;-79
2023/08/06 03:14:35;;;;;;;;;;;25.40;63.60;;;;;;5042794;28;43877;-80
2023/08/06 03:17:00;;;;;;;;;;;25.60;60.20;;;;;;5045821;28;43056;-80
2023/08/06 03:19:26;;;;;;;;;;;25.50;63.20;;;;;;5045598;28;43039;-81
2023/08/06 03:21:51;;;;;;;;;;;25.50;61.60;;;;;;5036300;28;43033;-80
2023/08/06 03:24:17;;;;;;;;;;;25.50;61.60;;;;;;5025522;28;43209;-79
2023/08/06 03:26:42;;;;;;;;;;;25.60;62.80;;;;;;5025857;28;43318;-79
2023/08/06 03:29:08;;;;;;;;;;;25.60;63.50;;;;;;5024473;28;42816;-82
2023/08/06 03:31:33;;;;;;;;;;;25.70;64.50;;;;;;5026775;28;43125;-82
2023/08/06 03:33:59;;;;;;;;;;;25.50;59.60;;;;;;5022945;28;43459;-80
2023/08/06 03:36:24;;;;;;;;;;;25.70;59.70;;;;;;5025483;28;42893;-83
2023/08/06 03:38:50;;;;;;;;;;;25.40;59.50;;;;;;5025514;28;43590;-83
2023/08/06 03:41:15;;;;;;;;;;;25.40;59.70;;;;;;5042380;28;42912;-80
2023/08/06 03:43:41;;;;;;;;;;;25.50;59.60;;;;;;5043782;28;42933;-83
2023/08/06 03:46:06;;;;;;;;;;;25.60;59.60;;;;;;5043998;28;42904;-79
2023/08/06 03:48:31;;;;;;;;;;;25.40;59.50;;;;;;5044921;28;42966;-79
2023/08/06 03:50:57;;;;;;;;;;;25.70;59.60;;;;;;5033897;28;43011;-81
2023/08/06 03:53:22;;;;;;;;;;;25.70;59.50;;;;;;5023512;28;44554;-84
2023/08/06 03:55:48;;;;;;;;;;;25.50;59.60;;;;;;5024543;28;42888;-80
2023/08/06 03:58:13;;;;;;;;;;;25.40;59.40;;;;;;5024827;28;42843;-79
2023/08/06 04:00:39;;;;;;;;;;;25.40;59.50;;;;;;5025622;28;42902;-82
2023/08/06 04:03:04;;;;;;;;;;;25.50;59.60;;;;;;5024548;28;43850;-81
2023/08/06 04:05:33;;;;;;;;;;;25.40;59.60;;;;;;5025884;28;43259;-80
2023/08/06 04:07:59;;;;;;;;;;;25.30;57.50;;;;;;5025066;28;42913;-79
2023/08/06 04:10:25;;;;;;;;;;;25.40;59.40;;;;;;5024600;28;43083;-80
2023/08/06 04:12:50;;;;;;;;;;;25.50;59.30;;;;;;5022173;28;44419;-79
2023/08/06 04:15:16;;;;;;;;;;;25.50;59.30;;;;;;5023784;28;43114;-86
2023/08/06 04:17:41;;;;;;;;;;;25.60;59.30;;;;;;5024043;28;43435;-80
2023/08/06 04:20:07;;;;;;;;;;;25.40;59.20;;;;;;5024202;28;42858;-82
2023/08/06 04:22:32;;;;;;;;;;;25.40;58.50;;;;;;5024216;28;43576;-79
2023/08/06 04:24:58;;;;;;;;;;;25.30;58.90;;;;;;5024629;28;42956;-80
2023/08/06 04:27:23;;;;;;;;;;;25.40;58.90;;;;;;5040662;28;42976;-81
2023/08/06 04:29:49;;;;;;;;;;;25.40;58.90;;;;;;5044747;28;42876;-81
2023/08/06 04:32:14;;;;;;;;;;;25.60;59.10;;;;;;5044274;28;43442;-81
2023/08/06 04:34:40;;;;;;;;;;;25.40;58.90;;;;;;5044175;28;43629;-79
2023/08/06 04:37:05;;;;;;;;;;;25.30;59.20;;;;;;5035252;28;42918;-83
2023/08/06 04:39:31;;;;;;;;;;;25.40;58.90;;;;;;5024076;28;42912;-80
2023/08/06 04:41:59;;;;;;;;;;;25.40;58.90;;;;;;5024480;28;42913;-84
2023/08/06 04:44:25;;;;;;;;;;;25.20;58.50;;;;;;5023957;28;42914;-80
2023/08/06 04:46:51;;;;;;;;;;;25.30;58.80;;;;;;5029690;28;43003;-83
2023/08/06 04:49:17;;;;;;;;;;;25.30;58.90;;;;;;5043423;28;42850;-83
2023/08/06 04:51:42;;;;;;;;;;;25.30;58.90;;;;;;5044487;28;43689;-79
2023/08/06 04:54:08;;;;;;;;;;;25.40;58.90;;;;;;5043824;28;43070;-80
2023/08/06 04:56:33;;;;;;;;;;;25.40;58.90;;;;;;5042619;28;43014;-79
2023/08/06 04:58:59;;;;;;;;;;;25.40;58.90;;;;;;5042621;28;43328;-85
2023/08/06 05:01:25;;;;;;;;;;;25.30;58.90;;;;;;5043797;28;42894;-79
2023/08/06 05:03:50;;;;;;;;;;;25.40;59.00;;;;;;5043863;28;42947;-80
2023/08/06 05:06:15;;;;;;;;;;;25.30;58.70;;;;;;5043065;28;43039;-81
2023/08/06 05:08:41;;;;;;;;;;;25.40;58.80;;;;;;5027480;28;43043;-79
2023/08/06 05:11:07;;;;;;;;;;;25.50;59.00;;;;;;5023068;28;43629;-80
2023/08/06 05:13:32;;;;;;;;;;;25.30;59.20;;;;;;5023619;28;42888;-81
2023/08/06 05:15:58;;;;;;;;;;;25.60;59.10;;;;;;5024099;28;42954;-79
2023/08/06 05:18:23;;;;;;;;;;;25.30;58.90;;;;;;5025243;28;42911;-79
2023/08/06 05:20:49;;;;;;;;;;;25.40;59.00;;;;;;5022860;28;42948;-81
2023/08/06 05:23:15;;;;;;;;;;;25.50;59.10;;;;;;5024452;28;42885;-84
2023/08/06 05:25:40;;;;;;;;;;;25.40;59.20;;;;;;5027523;28;42900;-80
2023/08/06 05:28:06;;;;;;;;;;;25.30;59.00;;;;;;5030784;28;42990;-85
2023/08/06 05:30:31;;;;;;;;;;;25.40;59.30;;;;;;5046482;28;43370;-81
2023/08/06 05:32:57;;;;;;;;;;;25.30;59.60;;;;;;5047363;28;43194;-80
2023/08/06 05:35:23;;;;;;;;;;;25.30;59.30;;;;;;5046511;28;43521;-83
2023/08/06 05:37:49;;;;;;;;;;;25.50;59.50;;;;;;5044951;28;43189;-83
2023/08/06 05:40:15;;;;;;;;;;;25.40;59.70;;;;;;5027182;28;43970;-83
2023/08/06 05:42:41;;;;;;;;;;;25.40;59.70;;;;;;5024665;28;43067;-81
2023/08/06 05:45:07;;;;;;;;;;;25.30;59.30;;;;;;5027168;28;42879;-82
2023/08/06 05:47:33;;;;;;;;;;;25.50;58.90;;;;;;5027030;28;43039;-80
2023/08/06 05:49:58;;;;;;;;;;;25.40;59.40;;;;;;5027583;28;43680;-80
2023/08/06 05:52:24;;;;;;;;;;;25.40;59.60;;;;;;5025941;28;42951;-80
2023/08/06 05:54:49;;;;;;;;;;;25.50;59.60;;;;;;5026376;28;42916;-79
2023/08/06 05:57:15;;;;;;;;;;;25.50;59.70;;;;;;5025699;28;42960;-80
2023/08/06 05:59:41;;;;;;;;;;;25.60;59.70;;;;;;5026304;28;44105;-79
2023/08/06 06:02:06;;;;;;;;;;;25.40;59.60;;;;;;5032884;28;43049;-79
2023/08/06 06:04:32;;;;;;;;;;;25.30;59.70;;;;;;5040299;28;43513;-80
2023/08/06 06:06:57;;;;;;;;;;;25.40;59.30;;;;;;5036828;28;43096;-79
2023/08/06 06:09:23;;;;;;;;;;;25.40;59.90;;;;;;5037738;28;43753;-79
2023/08/06 06:11:49;;;;;;;;;;;25.40;60.00;;;;;;5037831;28;42939;-80
2023/08/06 06:14:16;;;;;;;;;;;25.40;60.00;;;;;;5034125;28;42987;-79
2023/08/06 06:16:41;;;;;;;;;;;25.30;60.20;;;;;;5037499;28;42894;-79
2023/08/06 06:19:07;;;;;;;;;;;25.40;60.50;;;;;;5035530;28;42991;-82
2023/08/06 06:21:32;;;;;;;;;;;25.40;60.50;;;;;;5038321;28;43095;-79
2023/08/06 06:23:58;;;;;;;;;;;25.40;60.00;;;;;;5036948;28;44127;-80
2023/08/06 06:26:23;;;;;;;;;;;25.30;60.60;;;;;;5035297;28;43065;-80
2023/08/06 06:28:49;;;;;;;;;;;25.30;60.60;;;;;;5034367;28;42937;-80
2023/08/06 06:31:14;;;;;;;;;;;25.40;61.00;;;;;;5036984;28;42875;-82
2023/08/06 06:33:40;;;;;;;;;;;25.50;61.00;;;;;;5041186;28;43165;-79
2023/08/06 06:36:07;;;;;;;;;;;25.50;61.20;;;;;;5036857;28;43441;-81
2023/08/06 06:38:33;;;;;;;;;;;25.40;61.00;;;;;;5036248;28;43567;-80
2023/08/06 06:40:59;;;;;;;;;;;25.50;61.40;;;;;;5043103;28;43174;-85
2023/08/06 06:43:24;;;;;;;;;;;25.40;61.30;;;;;;5034466;28;44198;-90
2023/08/06 06:45:54;;;;;;;;;;;26.10;65.20;;;;;;5042172;28;43284;-83
2023/08/06 06:48:19;;;;;;;;;;;25.50;60.40;;;;;;5037417;28;43455;-80
2023/08/06 06:50:47;;;;;;;;;;;25.40;62.20;;;;;;5045139;28;43147;-80
2023/08/06 06:53:12;;;;;;;;;;;25.40;60.00;;;;;;5040465;28;43553;-92
2023/08/06 06:55:38;;;;;;;;;;;25.40;60.00;;;;;;5037699;28;43053;-80
2023/08/06 06:58:03;;;;;;;;;;;25.60;60.10;;;;;;5036791;28;43541;-85
2023/08/06 07:00:29;;;;;;;;;;;25.60;64.20;;;;;;5044827;28;42941;-83
2023/08/06 07:02:54;;;;;;;;;;;25.60;61.60;;;;;;5042758;28;43006;-84
2023/08/06 07:05:20;;;;;;;;;;;25.50;63.40;;;;;;5041607;28;42979;-84
2023/08/06 07:07:45;;;;;;;;;;;25.50;65.60;;;;;;5036590;28;43009;-85
2023/08/06 07:10:11;;;;;;;;;;;25.60;65.30;;;;;;5035142;28;42869;-86
2023/08/06 07:12:36;;;;;;;;;;;25.60;65.00;;;;;;5035299;28;43383;-84
2023/08/06 07:15:04;;;;;;;;;;;25.40;66.30;;;;;;5043541;28;43220;-85
2023/08/06 07:17:30;;;;;;;;;;;25.60;66.40;;;;;;5039957;28;44850;-84
2023/08/06 07:19:55;;;;;;;;;;;25.40;61.80;;;;;;5027924;28;42972;-84
2023/08/06 07:22:21;;;;;;;;;;;25.40;61.90;;;;;;5037570;28;43003;-84
2023/08/06 07:24:46;;;;;;;;;;;25.50;62.10;;;;;;5039400;28;42922;-88
2023/08/06 07:27:12;;;;;;;;;;;25.40;62.50;;;;;;5041304;28;43669;-83
2023/08/06 07:29:37;;;;;;;;;;;25.30;62.70;;;;;;5044401;28;42983;-91
2023/08/06 07:32:03;;;;;;;;;;;25.40;66.00;;;;;;5044377;28;43770;-89
2023/08/06 07:34:28;;;;;;;;;;;25.50;61.90;;;;;;5039597;28;43050;-91
2023/08/06 07:36:54;;;;;;;;;;;25.30;62.20;;;;;;5036840;28;43061;-85
2023/08/06 07:39:19;;;;;;;;;;;25.40;61.70;;;;;;5043429;28;42979;-86
2023/08/06 07:41:45;;;;;;;;;;;25.40;62.10;;;;;;5026763;28;42963;-87
2023/08/06 07:44:11;;;;;;;;;;;25.40;62.20;;;;;;5023113;28;42965;-85
2023/08/06 07:46:38;;;;;;;;;;;25.40;65.50;;;;;;5023661;28;42990;-85
2023/08/06 07:49:03;;;;;;;;;;;25.40;61.00;;;;;;5024130;28;42885;-85
2023/08/06 07:51:29;;;;;;;;;;;25.30;61.00;;;;;;5026099;28;43003;-85
2023/08/06 07:53:54;;;;;;;;;;;25.20;61.20;;;;;;5023707;28;42942;-88
2023/08/06 07:56:20;;;;;;;;;;;25.30;61.70;;;;;;5024893;28;43410;-86
2023/08/06 07:58:45;;;;;;;;;;;25.40;61.80;;;;;;5025257;28;42988;-89
2023/08/06 08:01:11;;;;;;;;;;;25.50;62.20;;;;;;5024274;28;44498;-85
2023/08/06 08:03:36;;;;;;;;;;;25.40;61.60;;;;;;5025127;28;43068;-88
2023/08/06 08:06:02;;;;;;;;;;;25.40;63.50;;;;;;5025413;28;42917;-86
2023/08/06 08:08:28;;;;;;;;;;;25.60;63.60;;;;;;5025450;28;42853;-86
2023/08/06 08:10:55;;;;;;;;;;;25.60;62.00;;;;;;5025101;28;43912;-85
2023/08/06 08:13:20;;;;;;;;;;;25.40;64.20;;;;;;5025233;28;43098;-89
2023/08/06 08:15:46;;;;;;;;;;;25.50;60.30;;;;;;5024241;28;44116;-86
2023/08/06 08:18:11;;;;;;;;;;;25.60;59.00;;;;;;5023829;28;43074;-87
2023/08/06 08:20:37;;;;;;;;;;;25.60;58.80;;;;;;5032012;28;45387;-88
2023/08/06 08:23:03;;;;;;;;;;;25.60;58.80;;;;;;5045021;28;42984;-88
2023/08/06 08:25:28;;;;;;;;;;;25.40;59.00;;;;;;5044321;28;43316;-87
2023/08/06 08:28:00;;;;;;;;;;;25.60;63.10;;;;;;5044599;28;42908;-87
2023/08/06 08:30:26;;;;;;;;;;;25.60;59.40;;;;;;5042932;28;43890;-89
2023/08/06 08:32:53;;;;;;;;;;;25.50;62.40;;;;;;5026024;28;42912;-88
2023/08/06 08:35:18;;;;;;;;;;;25.60;63.10;;;;;;5024176;28;42955;-89
2023/08/06 08:37:44;;;;;;;;;;;25.60;62.50;;;;;;5025197;28;43002;-88
2023/08/06 08:40:11;;;;;;;;;;;25.60;60.20;;;;;;5022659;28;44825;-89
2023/08/06 08:42:37;;;;;;;;;;;25.60;61.40;;;;;;5023510;28;42987;-89
2023/08/06 08:45:04;;;;;;;;;;;25.60;60.50;;;;;;5023796;28;42896;-86
2023/08/06 08:47:30;;;;;;;;;;;25.50;59.90;;;;;;5024337;28;43051;-88
2023/08/06 08:49:57;;;;;;;;;;;25.50;62.50;;;;;;5023360;28;44552;-84
2023/08/06 08:52:23;;;;;;;;;;;25.60;61.90;;;;;;5024206;28;43026;-85
2023/08/06 08:54:51;;;;;;;;;;;25.60;62.50;;;;;;5024361;28;43018;-86
2023/08/06 08:57:43;;;;;;;;;;;25.60;61.90;;;;;;5024301;28;43132;-87
2023/08/06 09:00:09;;;;;;;;;;;25.60;60.10;;;;;;4985661;28;43119;-86
2023/08/06 09:02:39;;;;;;;;;;;25.80;61.90;;;;;;4978201;28;43163;-87
2023/08/06 09:05:10;;;;;;;;;;;25.80;61.00;;;;;;4986234;28;43668;-89
2023/08/06 09:07:41;;;;;;;;;;;25.70;59.90;;;;;;4986404;28;43006;-88
2023/08/06 09:10:07;;;;;;;;;;;25.60;60.70;;;;;;4986199;28;43002;-88
2023/08/06 09:12:32;;;;;;;;;;;25.70;60.80;;;;;;4994512;28;43083;-88
2023/08/06 09:14:58;;;;;;;;;;;25.50;60.90;;;;;;5004997;28;43627;-89
2023/08/06 09:17:23;;;;;;;;;;;25.50;60.50;;;;;;4988867;28;42982;-87
2023/08/06 09:19:49;;;;;;;;;;;25.60;60.50;;;;;;5005340;28;43865;-87
2023/08/06 09:22:15;;;;;;;;;;;25.60;57.80;;;;;;4984598;28;42970;-86
2023/08/06 09:24:53;;;;;;;;;;;25.50;57.10;;;;;;4984651;28;43157;-86
2023/08/06 09:27:18;;;;;;;;;;;25.50;55.60;;;;;;4985685;28;43301;-85
2023/08/06 09:29:45;;;;;;;;;;;25.50;57.50;;;;;;4986028;28;43040;-88
2023/08/06 09:32:11;;;;;;;;;;;25.50;57.70;;;;;;4985970;28;43011;-86
2023/08/06 09:34:39;;;;;;;;;;;25.50;57.80;;;;;;4985935;28;43034;-87
2023/08/06 09:37:05;;;;;;;;;;;25.40;59.00;;;;;;5008470;28;42850;-87
2023/08/06 09:39:30;;;;;;;;;;;25.60;59.00;;;;;;5026208;28;44208;-90
2023/08/06 09:41:59;;;;;;;;;;;25.50;58.90;;;;;;5027891;28;43044;-86
2023/08/06 09:44:26;;;;;;;;;;;25.50;56.70;;;;;;5027989;28;42917;-86
2023/08/06 09:46:53;;;;;;;;;;;25.60;58.60;;;;;;5027449;28;42852;-86
2023/08/06 09:49:19;;;;;;;;;;;25.60;58.50;;;;;;5027179;28;43542;-88
2023/08/06 09:54:32;;;;;;;;;;;25.60;58.00;;;;;;5038479;28;42985;-88
2023/08/06 09:56:58;;;;;;;;;;;25.70;58.30;;;;;;5045910;28;42989;-88
2023/08/06 09:59:24;;;;;;;;;;;25.50;58.20;;;;;;5047600;28;43823;-89
2023/08/06 10:01:49;;;;;;;;;;;25.60;58.40;;;;;;5044446;28;43066;-89
2023/08/06 10:04:18;;;;;;;;;;;25.60;58.50;;;;;;5025077;28;45430;-89
2023/08/06 10:06:46;;;;;;;;;;;25.60;56.80;;;;;;5025800;28;43086;-86
2023/08/06 10:09:12;;;;;;;;;;;25.60;58.80;;;;;;5026021;28;43085;-88
2023/08/06 10:11:38;;;;;;;;;;;25.40;59.00;;;;;;5027748;28;43580;-89
2023/08/06 10:14:09;;;;;;;;;;;25.60;59.20;;;;;;5046721;28;43795;-87
2023/08/06 10:16:36;;;;;;;;;;;25.60;59.30;;;;;;5043349;28;42884;-88
2023/08/06 10:19:02;;;;;;;;;;;25.30;58.90;;;;;;5040832;28;43030;-86
2023/08/06 10:21:30;;;;;;;;;;;25.70;59.30;;;;;;5033871;28;43017;-86
2023/08/06 10:23:56;;;;;;;;;;;25.70;59.30;;;;;;5046647;28;44866;-85
2023/08/06 10:26:28;;;;;;;;;;;25.80;59.80;;;;;;5035924;28;43031;-87
2023/08/06 10:28:54;;;;;;;;;;;25.70;58.00;;;;;;5036892;28;42895;-86
2023/08/06 10:31:20;;;;;;;;;;;25.70;59.30;;;;;;5033029;28;43058;-86
2023/08/06 10:33:46;;;;;;;;;;;25.70;59.70;;;;;;5034393;28;44685;-88
2023/08/06 10:36:15;;;;;;;;;;;25.70;60.20;;;;;;5045598;28;43062;-86
2023/08/06 10:38:44;;;;;;;;;;;25.70;63.60;;;;;;5025824;28;43028;-88
2023/08/06 10:41:15;;;;;;;;;;;25.70;60.40;;;;;;5029968;28;43082;-87
2023/08/06 10:43:44;;;;;;;;;;;25.70;62.90;;;;;;5035636;28;43927;-87
2023/08/06 10:46:11;;;;;;;;;;;25.60;62.20;;;;;;5044377;28;43174;-89
2023/08/06 10:48:56;;;;;;;;;;;25.60;60.80;;;;;;5042434;28;43582;-90
2023/08/06 10:51:22;;;;;;;;;;;25.60;55.10;;;;;;5042005;28;43041;-85
2023/08/06 10:53:48;;;;;;;;;;;25.60;58.20;;;;;;5038904;28;43018;-86
2023/08/06 10:56:14;;;;;;;;;;;25.60;58.80;;;;;;5027551;28;42916;-85
2023/08/06 10:58:40;;;;;;;;;;;25.50;58.20;;;;;;5025091;28;42833;-85
2023/08/06 11:01:05;;;;;;;;;;;25.70;58.60;;;;;;5030029;28;43037;-88
2023/08/06 11:03:31;;;;;;;;;;;25.90;58.40;;;;;;5043434;28;42960;-83
2023/08/06 11:05:57;;;;;;;;;;;25.60;58.40;;;;;;5033813;28;43252;-84
2023/08/06 11:08:26;;;;;;;;;;;25.80;57.70;;;;;;5043804;28;43782;-84
2023/08/06 11:10:52;;;;;;;;;;;25.80;56.40;;;;;;5037592;28;43030;-83
2023/08/06 11:13:20;;;;;;;;;;;27.10;59.10;;;;;;5045030;28;43009;-86
2023/08/06 11:15:46;;;;;;;;;;;25.90;57.00;;;;;;5037524;28;42966;-84
2023/08/06 11:18:11;;;;;;;;;;;25.90;57.70;;;;;;5035805;28;43828;-83
2023/08/06 11:20:38;;;;;;;;;;;25.80;56.90;;;;;;5044203;28;43110;-84
2023/08/06 11:23:04;;;;;;;;;;;25.70;57.80;;;;;;5040444;28;42958;-88
2023/08/06 11:25:29;;;;;;;;;;;25.80;57.90;;;;;;5045066;28;42930;-85
2023/08/06 11:27:55;;;;;;;;;;;25.70;58.00;;;;;;5043997;28;43052;-84
2023/08/06 11:30:20;;;;;;;;;;;25.80;58.10;;;;;;5044844;28;43047;-85
2023/08/06 11:32:49;;;;;;;;;;;25.90;58.00;;;;;;5043322;28;43600;-91
2023/08/06 11:35:15;;;;;;;;;;;25.90;56.00;;;;;;5045543;28;43125;-84
2023/08/06 11:37:44;;;;;;;;;;;25.70;57.40;;;;;;5043795;28;44559;-86
2023/08/06 11:40:11;;;;;;;;;;;25.80;58.10;;;;;;5042616;28;42961;-85
2023/08/06 11:42:36;;;;;;;;;;;25.70;57.80;;;;;;5038277;28;45849;-84
2023/08/06 11:45:02;;;;;;;;;;;25.60;58.00;;;;;;5036454;28;44162;-86
2023/08/06 11:47:28;;;;;;;;;;;25.60;57.70;;;;;;5044734;28;43429;-83
2023/08/06 11:49:54;;;;;;;;;;;25.90;57.90;;;;;;5045126;28;42860;-84
2023/08/06 11:52:20;;;;;;;;;;;25.70;57.70;;;;;;5042773;28;43638;-86
2023/08/06 11:55:00;;;;;;;;;;;25.90;57.80;;;;;;5044632;28;42868;-84
2023/08/06 11:57:26;;;;;;;;;;;25.90;57.70;;;;;;5043012;28;43201;-84
2023/08/06 11:59:51;;;;;;;;;;;25.80;57.60;;;;;;5040618;28;43075;-84
2023/08/06 12:02:17;;;;;;;;;;;25.80;57.80;;;;;;5038980;28;44457;-83
2023/08/06 12:05:02;;;;;;;;;;;25.80;57.80;;;;;;5037419;28;43288;-83
2023/08/06 12:07:31;;;;;;;;;;;25.90;55.90;;;;;;5041968;28;43593;-83
2023/08/06 12:09:57;;;;;;;;;;;25.90;55.90;;;;;;5041120;28;42953;-90
2023/08/06 12:12:23;;;;;;;;;;;25.80;57.80;;;;;;5039541;28;43522;-84
2023/08/06 12:14:49;;;;;;;;;;;25.90;57.70;;;;;;5044502;28;42892;-84
2023/08/06 12:17:14;;;;;;;;;;;26.00;58.10;;;;;;5043175;28;46113;-84
2023/08/06 12:19:40;;;;;;;;;;;25.80;58.10;;;;;;5037677;28;43081;-84
2023/08/06 12:22:05;;;;;;;;;;;26.00;58.00;;;;;;5038776;28;43025;-84
2023/08/06 12:24:31;;;;;;;;;;;26.10;58.50;;;;;;5035697;28;43091;-84
2023/08/06 12:26:59;;;;;;;;;;;25.90;58.50;;;;;;5034671;28;64475;-86
2023/08/06 12:29:25;;;;;;;;;;;25.90;58.90;;;;;;5039571;28;43077;-85
2023/08/06 12:31:50;;;;;;;;;;;25.90;58.70;;;;;;5040825;28;43642;-84
2023/08/06 12:34:16;;;;;;;;;;;25.80;58.40;;;;;;5043953;28;42938;-84
2023/08/06 12:36:41;;;;;;;;;;;25.90;58.40;;;;;;5043937;28;42935;-84
2023/08/06 12:39:07;;;;;;;;;;;25.90;58.40;;;;;;5044405;28;42868;-84
2023/08/06 12:41:32;;;;;;;;;;;26.00;58.60;;;;;;5044076;28;42970;-86
2023/08/06 12:43:58;;;;;;;;;;;26.00;58.50;;;;;;5044496;28;43033;-84
2023/08/06 12:46:23;;;;;;;;;;;25.90;58.90;;;;;;5036084;28;42872;-84
2023/08/06 12:48:49;;;;;;;;;;;25.90;58.90;;;;;;5024506;28;42880;-84
2023/08/06 12:51:14;;;;;;;;;;;26.00;58.70;;;;;;5024663;28;42917;-86
2023/08/06 12:53:40;;;;;;;;;;;26.00;58.70;;;;;;5024321;28;42928;-84
2023/08/06 12:56:05;;;;;;;;;;;26.10;58.70;;;;;;5023855;28;43060;-84
2023/08/06 12:58:31;;;;;;;;;;;26.10;58.20;;;;;;5024103;28;42937;-91
2023/08/06 13:00:56;;;;;;;;;;;26.20;58.10;;;;;;5024250;28;43421;-84
2023/08/06 13:03:22;;;;;;;;;;;26.10;58.30;;;;;;5034181;28;42919;-84
2023/08/06 13:05:47;;;;;;;;;;;26.10;58.60;;;;;;5045179;28;43153;-84
2023/08/06 13:08:13;;;;;;;;;;;26.00;58.90;;;;;;5044809;28;42967;-82
2023/08/06 13:10:38;;;;;;;;;;;26.00;58.60;;;;;;5043353;28;45344;-83
2023/08/06 13:13:05;;;;;;;;;;;26.20;58.80;;;;;;5044398;28;42915;-83
2023/08/06 13:15:30;;;;;;;;;;;25.90;58.60;;;;;;5042275;28;44110;-83
2023/08/06 13:17:56;;;;;;;;;;;26.00;58.70;;;;;;5036196;28;43276;-83
2023/08/06 13:20:22;;;;;;;;;;;25.70;57.90;;;;;;5037089;28;43440;-82
2023/08/06 13:22:50;;;;;;;;;;;25.90;56.80;;;;;;5033873;28;43028;-83
2023/08/06 13:25:16;;;;;;;;;;;25.90;55.10;;;;;;5031209;28;43709;-83
2023/08/06 13:27:44;;;;;;;;;;;25.90;55.10;;;;;;5035044;28;42841;-83
2023/08/06 13:30:09;;;;;;;;;;;25.90;54.60;;;;;;5034070;28;42928;-83
2023/08/06 13:32:36;;;;;;;;;;;25.90;54.30;;;;;;5064428;28;43085;-83
2023/08/06 13:35:03;;;;;;;;;;;26.00;54.60;;;;;;5031700;28;44898;-83
2023/08/06 13:37:29;;;;;;;;;;;26.10;54.60;;;;;;5035134;28;43139;-83
2023/08/06 13:39:54;;;;;;;;;;;25.90;53.40;;;;;;5041000;28;43708;-83
2023/08/06 13:42:20;;;;;;;;;;;25.80;53.70;;;;;;5043391;28;42931;-83
2023/08/06 13:44:45;;;;;;;;;;;25.90;53.20;;;;;;5044451;28;43701;-82
2023/08/06 13:47:11;;;;;;;;;;;25.80;53.40;;;;;;5042135;28;42969;-84
2023/08/06 13:49:36;;;;;;;;;;;25.90;52.70;;;;;;5037589;28;42984;-83
2023/08/06 13:52:02;;;;;;;;;;;25.90;52.20;;;;;;5037785;28;43236;-83
2023/08/06 13:54:27;;;;;;;;;;;26.00;52.30;;;;;;5031819;28;44526;-83
2023/08/06 13:56:53;;;;;;;;;;;25.90;52.50;;;;;;5037544;28;43020;-85
2023/08/06 13:59:19;;;;;;;;;;;25.80;52.60;;;;;;5037079;28;43644;-85
2023/08/06 14:01:45;;;;;;;;;;;25.90;52.80;;;;;;5041018;28;43225;-83
2023/08/06 14:04:12;;;;;;;;;;;25.70;53.00;;;;;;5045934;28;42971;-83
2023/08/06 14:06:37;;;;;;;;;;;25.80;53.60;;;;;;5031137;28;43076;-85
2023/08/06 14:09:03;;;;;;;;;;;25.70;53.40;;;;;;5038160;28;43580;-86
2023/08/06 14:11:29;;;;;;;;;;;25.70;54.20;;;;;;5040040;28;42899;-83
2023/08/06 14:13:55;;;;;;;;;;;25.70;54.60;;;;;;5039080;28;43789;-85